Time;durP1;ratioP1;P1;durP2;ratioP2;P2;SDS_P1;SDS_P2;PMS_P1;PMS_P2;Temp;Humidity;BMP_temperature;BMP_pressure;BME280_temperature;BME280_humidity;BME280_pressure;Samples;Min_cycle;Max_cycle;Signal;HPM_P1;HPM_P2
2022/12/19 00:09:02;;;;;;;;;;;;;;;;;;;;;
2022/12/19 00:23:59;;;;;;;;;;;;;;;3.01;100.00;100387.34;5050608;28;19916;-91
2022/12/19 00:26:44;;;;;;;;;;;;;;;;;;;;;
2022/12/19 00:29:22;;;;;;;;;;;;;;;;;;;;;
2022/12/19 00:35:32;;;;;;;;;;;;;;;;;;;;;
2022/12/19 00:38:22;;;;;;;;;;;;;;;4.12;100.00;100373.75;5112814;28;19916;-89
2022/12/19 00:41:20;;;;;;;;;;;;;;;;;;;;;
2022/12/19 00:50:31;;;;;;;;;;;;;;;5.14;100.00;100375.47;4992556;28;20009;-89
2022/12/19 00:56:35;;;;;;;;;;;;;;;;;;;;;
2022/12/19 01:02:45;;;;;;;;;;;;;;;;;;;;;
2022/12/19 01:05:34;;;;;;;;;;;;;;;;;;;;;
2022/12/19 01:08:00;;;;;;;;;;;;;;;5.66;100.00;100354.66;5100751;28;19916;-91
2022/12/19 01:10:35;;;;;;;;;;;;;;;;;;;;;
2022/12/19 01:19:33;;;;;;;;;;;;;;;5.85;100.00;100361.41;5048723;28;20425;-93
2022/12/19 01:21:57;;;;;;;;;;;;;;;5.89;100.00;100356.97;5110805;28;19916;-89
2022/12/19 01:24:45;;;;;;;;;;;;;;;5.94;100.00;100353.38;5113299;28;20002;-92
2022/12/19 01:30:36;;;;;;;;;;;;;;;;;;;;;
2022/12/19 01:33:32;;;;;;;;;;;;;;;;;;;;;
2022/12/19 01:36:21;;;;;;;;;;;;;;;;;;;;;
2022/12/19 01:42:18;;;;;;;;;;;;;;;;;;;;;
2022/12/19 01:45:04;;;;;;;;;;;;;;;6.16;100.00;100340.81;4990067;28;19918;-88
2022/12/19 01:48:00;;;;;;;;;;;;;;;;;;;;;
2022/12/19 01:50:33;;;;;;;;;;;;;;;6.24;100.00;100345.06;5038062;28;20272;-89
2022/12/19 01:56:10;;;;;;;;;;;;;;;6.29;100.00;100344.09;5050717;28;19917;-87
2022/12/19 01:59:06;;;;;;;;;;;;;;;6.31;100.00;100354.59;5050606;28;20390;-88
2022/12/19 03:16:27;;;;;;;;;;;;;;;3.38;100.00;100358.44;5350240;23;19933;-88
2022/12/19 03:19:05;;;;;;;;;;;;;;;;;;;;;
2022/12/19 03:21:33;;;;;;;;;;;;;;;3.26;100.00;100348.88;5012470;28;20390;-90
2022/12/19 03:23:59;;;;;;;;;;;;;;;3.21;100.00;100345.41;5012276;28;19918;-86
2022/12/19 03:26:27;;;;;;;;;;;;;;;3.15;100.00;100345.44;5012253;28;19918;-86
2022/12/19 03:28:53;;;;;;;;;;;;;;;3.11;100.00;100337.59;5012147;28;19925;-85
2022/12/19 03:31:20;;;;;;;;;;;;;;;3.09;100.00;100329.75;4993340;28;19972;-86
2022/12/19 03:33:47;;;;;;;;;;;;;;;3.00;100.00;100325.41;4996997;28;20012;-89
2022/12/19 03:36:15;;;;;;;;;;;;;;;3.00;100.00;100322.81;5015820;28;20322;-85
2022/12/19 03:38:42;;;;;;;;;;;;;;;2.97;100.00;100324.53;5015814;28;19957;-85
2022/12/19 03:44:23;;;;;;;;;;;;;;;3.61;100.00;100307.69;5015729;28;19936;-89
2022/12/19 03:46:57;;;;;;;;;;;;;;;4.16;100.00;100307.28;5014354;28;19917;-88
2022/12/19 03:49:26;;;;;;;;;;;;;;;4.49;100.00;100310.47;4998146;28;19921;-88
2022/12/19 03:52:00;;;;;;;;;;;;;;;4.75;100.00;100305.84;5015600;28;19960;-87
2022/12/19 03:54:49;;;;;;;;;;;;;;;;;;;;;
2022/12/19 04:45:19;;;;;;;;;;;;;;;6.10;100.00;100247.94;6220338;23;19922;-89
2022/12/19 04:54:13;;;;;;;;;;;;;;;;;;;;;
2022/12/19 08:57:34;;;;;;;;;;;;;;;4.35;100.00;100252.00;6177340;22;20048;-86
2022/12/19 08:59:59;;;;;;;;;;;;;;;4.22;100.00;100237.28;6280521;22;19942;-81
2022/12/19 09:02:25;;;;;;;;;;;;;;;4.11;100.00;100240.84;6307809;22;19910;-83
2022/12/19 09:04:50;;;;;;;;;;;;;;;4.00;100.00;100242.72;6307962;22;19985;-81
2022/12/19 09:07:26;;;;;;;;;;;;;;;3.85;100.00;100238.47;6307396;22;19911;-81
2022/12/19 09:09:51;;;;;;;;;;;;;;;3.80;100.00;100237.66;6279998;22;19911;-82
2022/12/19 09:12:17;;;;;;;;;;;;;;;3.74;100.00;100238.56;6305815;22;19964;-81
2022/12/19 09:14:51;;;;;;;;;;;;;;;3.61;100.00;100229.06;6307587;22;19985;-81
2022/12/19 09:17:16;;;;;;;;;;;;;;;3.53;100.00;100242.19;6308601;22;19910;-82
2022/12/19 09:19:41;;;;;;;;;;;;;;;3.52;100.00;100244.84;6281880;22;19911;-81
2022/12/19 09:22:07;;;;;;;;;;;;;;;3.38;100.00;100242.28;6309336;22;19911;-83
2022/12/19 09:24:34;;;;;;;;;;;;;;;3.30;100.00;100244.94;6309371;22;19911;-82
2022/12/19 09:27:00;;;;;;;;;;;;;;;3.32;100.00;100243.22;6307764;22;20323;-81
2022/12/19 09:29:27;;;;;;;;;;;;;;;3.27;100.00;100231.88;6309576;22;19965;-81
2022/12/19 09:31:55;;;;;;;;;;;;;;;3.20;100.00;100231.03;6309263;22;20327;-81
2022/12/19 09:34:20;;;;;;;;;;;;;;;3.13;100.00;100236.31;6309037;22;19972;-82
2022/12/19 09:36:46;;;;;;;;;;;;;;;3.12;100.00;100239.84;6309707;22;20273;-81
2022/12/19 09:39:11;;;;;;;;;;;;;;;3.08;100.00;100224.13;6309306;22;20281;-82
2022/12/19 09:41:39;;;;;;;;;;;;;;;3.09;100.00;100230.22;6309110;22;19917;-82
2022/12/19 09:44:22;;;;;;;;;;;;;;;3.05;100.00;100216.28;6309126;22;19911;-81
2022/12/19 09:46:50;;;;;;;;;;;;;;;2.99;100.00;100210.22;6309153;22;19917;-81
2022/12/19 09:49:20;;;;;;;;;;;;;;;2.99;100.00;100218.94;6309068;22;19910;-80
2022/12/19 09:51:59;;;;;;;;;;;;;;;2.90;100.00;100222.50;6309108;22;19918;-80
2022/12/19 09:54:50;;;;;;;;;;;;;;;3.42;100.00;100216.06;6308952;22;20010;-81
2022/12/19 09:57:32;;;;;;;;;;;;;;;4.04;100.00;100217.31;6259610;22;19990;-81
2022/12/19 10:00:02;;;;;;;;;;;;;;;4.35;100.00;100212.66;6309100;22;19911;-81
2022/12/19 10:02:46;;;;;;;;;;;;;;;4.56;100.00;100211.53;6308981;22;19964;-82
2022/12/19 10:05:25;;;;;;;;;;;;;;;4.73;100.00;100219.22;6281686;22;19934;-81
2022/12/19 10:07:51;;;;;;;;;;;;;;;4.86;100.00;100205.03;6308825;22;19907;-83
2022/12/19 10:10:22;;;;;;;;;;;;;;;5.00;100.00;100198.75;6308821;22;19993;-84
2022/12/19 10:12:53;;;;;;;;;;;;;;;5.10;100.00;100197.72;6307383;22;19911;-83
2022/12/19 10:15:28;;;;;;;;;;;;;;;5.23;100.00;100198.44;6308880;22;19915;-84
2022/12/19 10:18:04;;;;;;;;;;;;;;;5.33;100.00;100193.91;6308905;22;20319;-83
2022/12/19 10:20:34;;;;;;;;;;;;;;;5.39;100.00;100188.56;6308656;22;19911;-83
2022/12/19 10:23:38;;;;;;;;;;;;;;;5.49;100.00;100179.66;6308715;22;19914;-85
2022/12/19 10:26:03;;;;;;;;;;;;;;;5.58;100.00;100170.75;6182537;23;19918;-80
2022/12/19 10:28:48;;;;;;;;;;;;;;;5.62;100.00;100160.16;6183991;23;19924;-84
2022/12/19 10:31:20;;;;;;;;;;;;;;;5.70;100.00;100161.81;6232290;22;19926;-82
2022/12/19 10:33:50;;;;;;;;;;;;;;;5.74;100.00;100156.44;6308712;22;19994;-83
2022/12/19 10:36:15;;;;;;;;;;;;;;;5.80;100.00;100163.38;6308691;22;19973;-83
2022/12/19 10:38:57;;;;;;;;;;;;;;;5.84;100.00;100165.06;6308825;22;20280;-82
2022/12/19 10:41:27;;;;;;;;;;;;;;;5.89;100.00;100162.31;6306848;22;19917;-85
2022/12/19 10:43:52;;;;;;;;;;;;;;;5.93;100.00;100164.03;6308629;22;19911;-86
2022/12/19 10:46:30;;;;;;;;;;;;;;;5.96;100.00;100158.72;6281073;22;20152;-84
2022/12/19 10:48:55;;;;;;;;;;;;;;;6.00;100.00;100152.53;6308664;22;19911;-82
2022/12/19 10:51:22;;;;;;;;;;;;;;;6.04;100.00;100159.47;6308467;22;19917;-82
2022/12/19 10:53:58;;;;;;;;;;;;;;;6.07;100.00;100156.78;6308413;22;19956;-82
2022/12/19 10:56:25;;;;;;;;;;;;;;;6.10;100.00;100156.72;6307068;22;19914;-82
2022/12/19 10:58:56;;;;;;;;;;;;;;;6.13;100.00;100146.16;6308218;22;20229;-82
2022/12/19 11:01:28;;;;;;;;;;;;;;;6.18;100.00;100140.78;6308816;22;19972;-84
2022/12/19 11:04:12;;;;;;;;;;;;;;;6.19;100.00;100139.91;6308747;22;20349;-82
2022/12/19 11:06:37;;;;;;;;;;;;;;;6.23;100.00;100131.03;6308438;22;19911;-82
2022/12/19 11:09:20;;;;;;;;;;;;;;;6.25;100.00;100131.00;6281053;22;20379;-81
2022/12/19 11:11:46;;;;;;;;;;;;;;;6.28;100.00;100129.19;6306667;22;19964;-81
2022/12/19 11:14:23;;;;;;;;;;;;;;;6.31;100.00;100123.00;6280968;22;19911;-83
2022/12/19 11:16:48;;;;;;;;;;;;;;;6.33;100.00;100121.19;6308551;22;19917;-82
2022/12/19 11:19:27;;;;;;;;;;;;;;;6.35;100.00;100114.13;6308288;22;19911;-85
2022/12/19 11:21:57;;;;;;;;;;;;;;;6.38;100.00;100115.84;6280620;22;19922;-87
2022/12/19 11:24:49;;;;;;;;;;;;;;;6.42;100.00;100120.16;6280823;22;19957;-82
2022/12/19 11:27:33;;;;;;;;;;;;;;;6.42;100.00;100117.53;6300211;22;19917;-82
2022/12/19 11:29:59;;;;;;;;;;;;;;;6.44;100.00;100106.03;6280990;22;19915;-83
2022/12/19 11:32:31;;;;;;;;;;;;;;;6.49;100.00;100111.22;6308093;22;19918;-83
2022/12/19 11:35:04;;;;;;;;;;;;;;;6.49;100.00;100113.84;6307915;22;19906;-87
2022/12/19 11:37:38;;;;;;;;;;;;;;;6.53;100.00;100120.81;6280462;22;20272;-83
2022/12/19 11:40:16;;;;;;;;;;;;;;;6.54;100.00;100114.63;6280422;22;19909;-84
2022/12/19 11:42:47;;;;;;;;;;;;;;;6.55;100.00;100111.94;6306376;22;19937;-82
2022/12/19 11:45:31;;;;;;;;;;;;;;;5.93;100.00;100112.28;6308356;22;20311;-83
2022/12/19 11:47:56;;;;;;;;;;;;;;;4.91;100.00;100121.84;6307836;22;19918;-84
2022/12/19 11:50:23;;;;;;;;;;;;;;;4.56;100.00;100117.06;6307799;22;19990;-83
2022/12/19 11:53:09;;;;;;;;;;;;;;;4.50;100.00;100122.38;6280570;22;19961;-87
2022/12/19 11:55:50;;;;;;;;;;;;;;;4.26;100.00;100118.28;6280454;22;19907;-81
2022/12/19 11:58:15;;;;;;;;;;;;;;;4.16;100.00;100113.19;6305793;22;20281;-81
2022/12/19 12:00:50;;;;;;;;;;;;;;;3.99;100.00;100108.13;6280685;22;19915;-81
2022/12/19 12:03:28;;;;;;;;;;;;;;;3.92;100.00;100103.81;6307909;22;19911;-83
2022/12/19 12:05:55;;;;;;;;;;;;;;;3.84;100.00;100103.03;6307911;22;19911;-80
2022/12/19 12:08:49;;;;;;;;;;;;;;;3.77;100.00;100109.22;6307815;22;20201;-82
2022/12/19 12:11:22;;;;;;;;;;;;;;;3.64;100.00;100104.09;6306116;22;20003;-81
2022/12/19 12:14:06;;;;;;;;;;;;;;;3.63;100.00;100094.47;6280382;22;19956;-82
2022/12/19 12:16:40;;;;;;;;;;;;;;;3.56;100.00;100091.97;6280275;22;19938;-81
2022/12/19 12:19:44;;;;;;;;;;;;;;;3.51;100.00;100083.25;6307711;22;19911;-84
2022/12/19 12:22:12;;;;;;;;;;;;;;;3.42;100.00;100082.47;6183088;23;19912;-80
2022/12/19 12:24:45;;;;;;;;;;;;;;;3.31;100.00;100076.44;6183247;23;20354;-85
2022/12/19 12:27:24;;;;;;;;;;;;;;;3.30;100.00;100076.47;6221686;22;19911;-81
2022/12/19 12:29:55;;;;;;;;;;;;;;;3.23;100.00;100086.97;6242958;23;19920;-85
2022/12/19 12:32:55;;;;;;;;;;;;;;;3.22;100.00;100079.13;6243513;23;20296;-81
2022/12/19 12:35:25;;;;;;;;;;;;;;;3.23;100.00;100086.97;6243323;23;19911;-83
2022/12/19 12:38:19;;;;;;;;;;;;;;;3.07;100.00;100091.47;6218024;23;19912;-85
2022/12/19 12:40:50;;;;;;;;;;;;;;;3.04;100.00;100080.16;6243399;23;19911;-84
2022/12/19 12:43:41;;;;;;;;;;;;;;;3.06;100.00;100081.91;6216386;23;19911;-82
2022/12/19 12:46:11;;;;;;;;;;;;;;;3.04;100.00;100083.63;6243361;23;19911;-85
2022/12/19 12:48:40;;;;;;;;;;;;;;;2.96;100.00;100089.81;6243291;23;19935;-81
2022/12/19 12:51:13;;;;;;;;;;;;;;;2.96;100.00;100080.22;6243547;23;19919;-83
2022/12/19 12:53:41;;;;;;;;;;;;;;;2.89;100.00;100083.75;6258064;22;19931;-90
2022/12/19 12:56:09;;;;;;;;;;;;;;;2.99;100.00;100087.19;6160240;22;19921;-85
2022/12/19 12:58:55;;;;;;;;;;;;;;;3.60;100.00;100081.41;6123186;23;19920;-86
2022/12/19 13:01:20;;;;;;;;;;;;;;;4.09;100.00;100080.03;6121637;23;20226;-88
2022/12/19 13:07:03;;;;;;;;;;;;;;;4.60;100.00;100058.41;6190670;23;19967;-82
2022/12/19 13:09:38;;;;;;;;;;;;;;;4.74;100.00;100058.22;6123774;23;20374;-82
2022/12/19 13:15:16;;;;;;;;;;;;;;;4.98;100.00;100061.31;6123213;23;19928;-90
2022/12/19 13:17:41;;;;;;;;;;;;;;;5.07;100.00;100059.44;6121346;23;19927;-90
2022/12/19 13:20:10;;;;;;;;;;;;;;;5.15;100.00;100061.94;6121729;23;19940;-88
2022/12/19 13:22:37;;;;;;;;;;;;;;;5.25;100.00;100070.56;6121837;23;19913;-87
2022/12/19 13:25:22;;;;;;;;;;;;;;;5.32;100.00;100069.53;6121933;23;19920;-85
2022/12/19 13:27:48;;;;;;;;;;;;;;;5.40;100.00;100066.78;6121357;23;19913;-86
2022/12/19 13:30:14;;;;;;;;;;;;;;;5.45;100.00;100063.16;6123016;23;19913;-85
2022/12/19 13:32:40;;;;;;;;;;;;;;;5.52;100.00;100063.97;6123205;23;19913;-84
2022/12/19 13:35:13;;;;;;;;;;;;;;;5.58;100.00;100063.81;6123089;23;20280;-83
2022/12/19 13:37:40;;;;;;;;;;;;;;;5.66;100.00;100065.47;6123092;23;20241;-84
2022/12/19 13:40:13;;;;;;;;;;;;;;;5.71;100.00;100063.59;6121523;23;20225;-86
2022/12/19 13:45:32;;;;;;;;;;;;;;;5.81;100.00;100059.94;6123051;23;20043;-82
2022/12/19 13:47:59;;;;;;;;;;;;;;;5.85;100.00;100058.09;6123410;23;19957;-81
2022/12/19 13:50:39;;;;;;;;;;;;;;;5.90;100.00;100057.09;6123423;23;19921;-84
2022/12/19 13:53:15;;;;;;;;;;;;;;;5.94;100.00;100050.03;6123286;23;19933;-86
2022/12/19 13:55:40;;;;;;;;;;;;;;;5.97;100.00;100045.59;6122865;23;19971;-84
2022/12/19 13:58:05;;;;;;;;;;;;;;;5.99;100.00;100038.53;6121765;23;20329;-87
2022/12/19 14:00:34;;;;;;;;;;;;;;;6.03;100.00;100044.63;6123063;23;19916;-84
2022/12/19 14:03:00;;;;;;;;;;;;;;;6.07;100.00;100043.66;6122855;23;19913;-84
2022/12/19 14:05:28;;;;;;;;;;;;;;;6.09;100.00;100044.47;6123338;23;19913;-81
2022/12/19 14:07:53;;;;;;;;;;;;;;;6.14;100.00;100041.75;6122914;23;19913;-83
2022/12/19 14:10:24;;;;;;;;;;;;;;;6.16;100.00;100045.25;6122837;23;20313;-84
2022/12/19 14:15:36;;;;;;;;;;;;;;;6.21;100.00;100051.28;6122941;23;19966;-84
2022/12/19 14:18:08;;;;;;;;;;;;;;;6.26;100.00;100051.19;6121288;23;20245;-87
2022/12/19 14:20:33;;;;;;;;;;;;;;;6.28;100.00;100047.59;6122916;23;20313;-85
2022/12/19 14:22:59;;;;;;;;;;;;;;;6.30;100.00;100034.41;6122811;23;19924;-83
2022/12/19 14:25:30;;;;;;;;;;;;;;;6.33;100.00;100037.88;6122922;23;19913;-81
2022/12/19 14:28:19;;;;;;;;;;;;;;;6.36;100.00;100035.13;6121155;23;20333;-81
2022/12/19 14:30:49;;;;;;;;;;;;;;;6.38;100.00;100024.56;6122591;23;20506;-80
2022/12/19 14:33:16;;;;;;;;;;;;;;;6.40;100.00;100021.91;6122826;23;19988;-81
2022/12/19 14:35:49;;;;;;;;;;;;;;;6.44;100.00;100015.69;6122623;23;19940;-82
2022/12/19 14:38:19;;;;;;;;;;;;;;;6.45;100.00;100046.38;6121235;23;19920;-80
2022/12/19 14:40:45;;;;;;;;;;;;;;;6.49;100.00;100045.41;6122609;23;19999;-83
2022/12/19 14:46:28;;;;;;;;;;;;;;;6.52;100.00;100050.59;6122663;23;19928;-82
2022/12/19 14:48:54;;;;;;;;;;;;;;;6.47;100.00;100044.59;6142239;23;20356;-83
2022/12/19 14:51:19;;;;;;;;;;;;;;;5.35;100.00;100035.34;6122698;23;19957;-85
2022/12/19 14:54:03;;;;;;;;;;;;;;;4.76;100.00;100037.19;6122540;23;19913;-84
2022/12/19 14:56:32;;;;;;;;;;;;;;;4.48;100.00;100050.69;6121097;23;19952;-84
2022/12/19 14:58:59;;;;;;;;;;;;;;;4.41;100.00;100049.03;6122635;23;20279;-83
2022/12/19 15:01:27;;;;;;;;;;;;;;;4.26;100.00;100045.75;6122977;23;20034;-83
2022/12/19 15:03:53;;;;;;;;;;;;;;;4.11;100.00;100046.78;6122719;23;19913;-82
2022/12/19 15:06:21;;;;;;;;;;;;;;;4.00;100.00;100061.78;6122999;23;20214;-83
2022/12/19 15:08:48;;;;;;;;;;;;;;;3.88;100.00;100060.19;6122569;23;19936;-83
2022/12/19 15:14:09;;;;;;;;;;;;;;;3.68;100.00;100052.50;6120981;23;19959;-82
2022/12/19 15:16:34;;;;;;;;;;;;;;;3.63;100.00;100054.31;6120932;23;20268;-82
2022/12/19 15:19:00;;;;;;;;;;;;;;;3.59;100.00;100056.09;6121512;23;19961;-82
2022/12/19 15:21:27;;;;;;;;;;;;;;;3.56;100.00;100063.13;6122261;23;19913;-81
2022/12/19 15:23:52;;;;;;;;;;;;;;;3.42;100.00;100058.88;6121850;23;19917;-82
2022/12/19 15:26:19;;;;;;;;;;;;;;;3.40;100.00;100059.78;6121383;23;20614;-82
2022/12/19 15:28:46;;;;;;;;;;;;;;;3.39;100.00;100056.28;6121781;23;19913;-81
2022/12/19 15:31:30;;;;;;;;;;;;;;;3.38;100.00;100059.81;6121588;23;19913;-82
2022/12/19 15:33:56;;;;;;;;;;;;;;;3.27;100.00;100053.78;6120820;23;20321;-81
2022/12/19 15:36:21;;;;;;;;;;;;;;;3.23;100.00;100054.69;6117564;23;19979;-82
2022/12/19 15:38:46;;;;;;;;;;;;;;;3.26;100.00;100054.66;6122410;23;19952;-82
2022/12/19 15:41:22;;;;;;;;;;;;;;;3.20;100.00;100050.34;6118940;23;19920;-82
2022/12/19 15:43:48;;;;;;;;;;;;;;;3.12;100.00;100051.31;6121848;23;20427;-82
2022/12/19 15:46:14;;;;;;;;;;;;;;;3.08;100.00;100048.69;6121863;23;20325;-83
2022/12/19 15:48:41;;;;;;;;;;;;;;;3.03;100.00;100055.72;6122376;23;19913;-81
2022/12/19 15:51:11;;;;;;;;;;;;;;;3.01;100.00;100049.63;6122074;23;19913;-84
2022/12/19 15:53:36;;;;;;;;;;;;;;;3.00;100.00;100042.66;6122758;23;19966;-83
2022/12/19 15:56:01;;;;;;;;;;;;;;;2.97;100.00;100047.91;6121409;23;19925;-81
2022/12/19 15:58:28;;;;;;;;;;;;;;;2.88;100.00;100050.59;6121308;23;19935;-82
2022/12/19 16:00:56;;;;;;;;;;;;;;;2.86;100.00;100042.75;6122424;23;20027;-82
2022/12/19 16:03:21;;;;;;;;;;;;;;;2.85;100.00;100053.25;6120982;23;19921;-82
2022/12/19 16:05:47;;;;;;;;;;;;;;;2.86;100.00;100055.00;6121248;23;19909;-82
2022/12/19 16:08:13;;;;;;;;;;;;;;;3.42;100.00;100052.78;6121400;23;19929;-80
2022/12/19 16:10:39;;;;;;;;;;;;;;;3.92;100.00;100042.66;6120498;23;19920;-81
2022/12/19 16:13:04;;;;;;;;;;;;;;;4.22;100.00;100044.03;6120576;23;19913;-82
2022/12/19 16:15:31;;;;;;;;;;;;;;;4.43;100.00;100048.13;6122329;23;20218;-81
2022/12/19 16:17:57;;;;;;;;;;;;;;;4.59;100.00;100047.91;6120704;23;19935;-80
2022/12/19 16:20:25;;;;;;;;;;;;;;;4.71;100.00;100050.38;6120761;23;19913;-82
2022/12/19 16:22:51;;;;;;;;;;;;;;;4.90;100.00;100043.94;6122245;23;19913;-83
2022/12/19 16:25:17;;;;;;;;;;;;;;;4.97;100.00;100038.59;6121996;23;20239;-86
2022/12/19 16:27:43;;;;;;;;;;;;;;;5.04;100.00;100029.72;6118183;23;19984;-82
2022/12/19 16:30:14;;;;;;;;;;;;;;;5.12;100.00;100026.97;6121118;23;19913;-85
2022/12/19 16:35:26;;;;;;;;;;;;;;;5.26;100.00;100040.75;6111197;23;19913;-87
2022/12/19 16:37:52;;;;;;;;;;;;;;;5.32;100.00;100031.91;6121140;23;20000;-82
2022/12/19 16:40:22;;;;;;;;;;;;;;;5.36;100.00;100020.41;6120862;23;20320;-83
2022/12/19 16:42:48;;;;;;;;;;;;;;;5.43;100.00;100014.19;6120496;23;20356;-81
2022/12/19 16:45:16;;;;;;;;;;;;;;;5.49;100.00;100014.06;6121784;23;19917;-84
2022/12/19 16:47:41;;;;;;;;;;;;;;;5.55;100.00;100011.34;6122255;23;19920;-82
2022/12/19 16:50:14;;;;;;;;;;;;;;;5.58;100.00;100008.63;6121796;23;20516;-83
2022/12/19 16:52:39;;;;;;;;;;;;;;;5.65;100.00;100004.13;6120132;23;20329;-84
2022/12/19 16:55:05;;;;;;;;;;;;;;;5.70;100.00;100009.31;6124725;23;19917;-83
2022/12/19 16:57:30;;;;;;;;;;;;;;;5.73;100.00;100014.50;6121841;23;20001;-83
2022/12/19 17:00:09;;;;;;;;;;;;;;;5.78;100.00;100017.91;6123751;23;19909;-90
2022/12/19 17:02:38;;;;;;;;;;;;;;;5.83;100.00;100016.03;6149686;22;19912;-88
2022/12/19 17:05:03;;;;;;;;;;;;;;;5.88;100.00;100015.97;6147168;23;19908;-85
2022/12/19 17:07:31;;;;;;;;;;;;;;;5.90;100.00;100012.38;6145091;22;20328;-85
2022/12/19 17:10:04;;;;;;;;;;;;;;;5.93;100.00;100006.19;6149039;23;20340;-85
2022/12/19 17:15:24;;;;;;;;;;;;;;;6.01;100.00;100014.84;6146652;23;19940;-85
2022/12/19 17:17:57;;;;;;;;;;;;;;;6.04;100.00;100012.13;6148307;23;20057;-85
2022/12/19 17:20:30;;;;;;;;;;;;;;;6.07;100.00;100016.47;6124448;23;19912;-89
2022/12/19 17:22:57;;;;;;;;;;;;;;;6.12;100.00;100004.09;6124460;23;20312;-85
2022/12/19 17:25:24;;;;;;;;;;;;;;;6.15;100.00;100006.66;6151186;23;19963;-85
2022/12/19 17:27:50;;;;;;;;;;;;;;;6.18;100.00;100006.59;6149740;22;20328;-84
2022/12/19 17:30:20;;;;;;;;;;;;;;;6.20;100.00;100015.31;6150143;23;19916;-84
2022/12/19 17:32:49;;;;;;;;;;;;;;;6.22;100.00;100008.25;6124696;23;20312;-85
2022/12/19 17:35:24;;;;;;;;;;;;;;;6.25;100.00;100007.31;6149472;22;20003;-86
2022/12/19 17:37:51;;;;;;;;;;;;;;;6.28;100.00;100016.00;6151343;22;20249;-86
2022/12/19 17:40:21;;;;;;;;;;;;;;;6.31;100.00;100015.09;6125741;23;19920;-85
2022/12/19 17:42:47;;;;;;;;;;;;;;;6.33;100.00;100011.53;6151102;22;19913;-85
2022/12/19 17:45:12;;;;;;;;;;;;;;;6.35;100.00;100014.09;6151906;22;20255;-85
2022/12/19 17:47:38;;;;;;;;;;;;;;;6.37;100.00;100014.97;6151017;23;19919;-86
2022/12/19 17:50:03;;;;;;;;;;;;;;;6.40;100.00;100011.38;6124813;23;19913;-85
2022/12/19 17:52:40;;;;;;;;;;;;;;;;;;;;;
2022/12/19 17:55:22;;;;;;;;;;;;;;;6.43;100.00;99995.53;6142996;23;19987;-90
2022/12/19 17:57:48;;;;;;;;;;;;;;;6.47;100.00;100002.47;6121494;23;20240;-84
2022/12/19 18:00:16;;;;;;;;;;;;;;;6.47;100.00;100015.63;6122954;23;20380;-85
2022/12/19 18:02:45;;;;;;;;;;;;;;;6.50;100.00;100010.28;6121518;23;20295;-86
2022/12/19 18:05:21;;;;;;;;;;;;;;;6.52;100.00;100013.75;6122838;23;19995;-88
2022/12/19 18:10:55;;;;;;;;;;;;;;;6.56;100.00;100023.31;6213686;23;19912;-87
2022/12/19 18:13:21;;;;;;;;;;;;;;;6.57;100.00;100009.22;6065789;23;20380;-85
2022/12/19 18:15:52;;;;;;;;;;;;;;;6.60;100.00;100019.69;6118444;23;19913;-86
2022/12/19 18:18:31;;;;;;;;;;;;;;;6.61;100.00;100018.81;6122161;23;19920;-85
2022/12/19 18:21:12;;;;;;;;;;;;;;;;;;;;;
2022/12/19 18:23:38;;;;;;;;;;;;;;;5.02;100.00;100021.00;6122675;23;19980;-85
2022/12/19 18:26:05;;;;;;;;;;;;;;;4.81;100.00;100017.81;6122423;23;20348;-84
2022/12/19 18:28:33;;;;;;;;;;;;;;;4.70;100.00;100011.88;6122021;23;19917;-83
2022/12/19 18:31:13;;;;;;;;;;;;;;;4.57;100.00;100020.84;6122296;23;19913;-84
2022/12/19 18:33:40;;;;;;;;;;;;;;;4.45;100.00;100014.88;6097956;23;19966;-86
2022/12/19 18:36:07;;;;;;;;;;;;;;;4.32;100.00;100018.53;6122797;23;19909;-88
2022/12/19 18:38:32;;;;;;;;;;;;;;;4.26;100.00;100018.63;6123584;23;19921;-85
2022/12/19 18:40:57;;;;;;;;;;;;;;;4.17;100.00;100017.84;6121461;23;19913;-85
2022/12/19 18:43:23;;;;;;;;;;;;;;;4.11;100.00;100015.31;6119816;23;19939;-83
2022/12/19 18:45:50;;;;;;;;;;;;;;;4.01;100.00;100016.31;6122942;23;19923;-81
2022/12/19 18:48:22;;;;;;;;;;;;;;;3.90;100.00;100016.44;6121237;23;19917;-87
2022/12/19 18:50:48;;;;;;;;;;;;;;;3.84;100.00;100023.53;6122514;23;19920;-83
2022/12/19 18:53:14;;;;;;;;;;;;;;;3.77;100.00;100020.09;6122371;23;19917;-91
2022/12/19 18:55:39;;;;;;;;;;;;;;;3.73;100.00;100026.25;6191712;22;19915;-82
2022/12/19 18:58:05;;;;;;;;;;;;;;;3.66;100.00;100033.31;6275946;22;19912;-84
2022/12/19 19:00:30;;;;;;;;;;;;;;;3.59;100.00;100026.41;6277318;22;19911;-85
2022/12/19 19:03:01;;;;;;;;;;;;;;;3.60;100.00;100036.84;6277462;22;19965;-83
2022/12/19 19:05:28;;;;;;;;;;;;;;;3.58;100.00;100035.16;6250249;22;20312;-81
2022/12/19 19:07:55;;;;;;;;;;;;;;;3.54;100.00;100031.72;6277439;22;19912;-82
2022/12/19 19:10:22;;;;;;;;;;;;;;;3.51;100.00;100028.22;6277197;22;19918;-84
2022/12/19 19:12:49;;;;;;;;;;;;;;;3.48;100.00;100033.50;6276256;22;19911;-85
2022/12/19 19:15:14;;;;;;;;;;;;;;;3.45;100.00;100024.78;6276986;22;20308;-84
2022/12/19 19:17:41;;;;;;;;;;;;;;;3.36;100.00;100018.78;6277062;22;19946;-85
2022/12/19 19:20:06;;;;;;;;;;;;;;;3.36;100.00;100021.41;6276955;22;19946;-82
2022/12/19 19:22:32;;;;;;;;;;;;;;;3.30;100.00;100014.47;6277103;22;19915;-86
2022/12/19 19:25:20;;;;;;;;;;;;;;;3.30;100.00;100019.69;6277325;22;19919;-90
2022/12/19 19:27:55;;;;;;;;;;;;;;;;;;;;;
2022/12/19 19:30:28;;;;;;;;;;;;;;;3.22;100.00;100018.91;6277100;22;19994;-91
2022/12/19 19:33:17;;;;;;;;;;;;;;;3.19;100.00;100016.31;6250209;22;19911;-91
2022/12/19 19:35:54;;;;;;;;;;;;;;;;;;;;;
2022/12/19 19:38:22;;;;;;;;;;;;;;;3.15;100.00;100015.47;6277632;22;19990;-85
2022/12/19 19:41:02;;;;;;;;;;;;;;;;;;;;;
2022/12/19 19:43:32;;;;;;;;;;;;;;;3.61;100.00;100019.41;6275677;22;20394;-86
2022/12/19 19:45:58;;;;;;;;;;;;;;;4.10;100.00;100018.84;6277143;22;20334;-87
2022/12/19 19:48:23;;;;;;;;;;;;;;;4.35;100.00;100014.09;6276826;22;19915;-86
2022/12/19 19:50:49;;;;;;;;;;;;;;;4.53;100.00;100025.25;6249746;22;20317;-86
2022/12/19 19:53:18;;;;;;;;;;;;;;;4.68;100.00;100026.78;6276794;22;19911;-85
2022/12/19 19:55:54;;;;;;;;;;;;;;;4.79;100.00;100024.88;6260942;22;19920;-84
2022/12/19 19:58:19;;;;;;;;;;;;;;;4.89;100.00;100022.97;6274449;22;19915;-87
2022/12/19 20:00:44;;;;;;;;;;;;;;;4.99;100.00;100021.91;6276139;22;19918;-86
2022/12/19 20:03:09;;;;;;;;;;;;;;;5.07;100.00;100017.44;6276792;22;19917;-85
2022/12/19 20:05:40;;;;;;;;;;;;;;;5.13;100.00;100011.19;6275895;22;19935;-85
2022/12/19 20:08:07;;;;;;;;;;;;;;;5.21;100.00;100017.16;6275878;22;19918;-86
2022/12/19 20:10:32;;;;;;;;;;;;;;;5.27;100.00;100019.69;6276070;22;20246;-90
2022/12/19 20:12:58;;;;;;;;;;;;;;;5.33;100.00;100017.84;6274966;22;19918;-82
2022/12/19 20:15:23;;;;;;;;;;;;;;;5.39;100.00;100023.88;6275710;22;19911;-84
2022/12/19 20:17:50;;;;;;;;;;;;;;;5.43;100.00;100027.31;6276449;22;19912;-83
2022/12/19 20:20:15;;;;;;;;;;;;;;;5.51;100.00;100021.94;6274057;22;19934;-83
2022/12/19 20:22:41;;;;;;;;;;;;;;;5.53;100.00;100028.00;6274848;22;19912;-88
2022/12/19 20:25:07;;;;;;;;;;;;;;;5.58;100.00;100034.91;6275176;22;19918;-86
2022/12/19 20:27:32;;;;;;;;;;;;;;;5.64;100.00;100036.56;6275410;22;19915;-88
2022/12/19 20:30:07;;;;;;;;;;;;;;;5.67;100.00;100031.25;6274904;22;19918;-84
2022/12/19 20:32:45;;;;;;;;;;;;;;;;;;;;;
2022/12/19 20:35:13;;;;;;;;;;;;;;;5.79;100.00;100044.16;6275773;22;19982;-86
2022/12/19 20:37:38;;;;;;;;;;;;;;;5.82;100.00;100036.22;6275940;22;19911;-88
2022/12/19 20:40:07;;;;;;;;;;;;;;;5.86;100.00;100031.78;6276360;22;19911;-87
2022/12/19 20:42:41;;;;;;;;;;;;;;;5.91;100.00;100031.69;6274434;22;19922;-86
2022/12/19 20:45:13;;;;;;;;;;;;;;;5.96;100.00;100035.06;6275358;22;20347;-87
2022/12/19 20:47:39;;;;;;;;;;;;;;;5.98;100.00;100036.81;6277001;22;19915;-90
2022/12/19 20:50:07;;;;;;;;;;;;;;;6.00;100.00;100035.03;6276221;22;19919;-84
2022/12/19 20:52:39;;;;;;;;;;;;;;;6.05;100.00;100034.03;6273273;22;19969;-87
2022/12/19 20:55:08;;;;;;;;;;;;;;;6.08;100.00;100036.63;6250425;22;19917;-87
2022/12/19 20:57:37;;;;;;;;;;;;;;;6.11;100.00;100041.81;6118768;23;19921;-88